Time;durP1;ratioP1;P1;durP2;ratioP2;P2;SDS_P1;SDS_P2;PMS_P1;PMS_P2;Temp;Humidity;BMP_temperature;BMP_pressure;BME280_temperature;BME280_humidity;BME280_pressure;Samples;Min_cycle;Max_cycle;Signal;HPM_P1;HPM_P2
2022/08/30 00:01:33;;;;;;;11.32;5.93;;;27.20;82.50;;;;;;5052457;28;20462;-69
2022/08/30 00:04:00;;;;;;;12.57;5.80;;;27.30;82.50;;;;;;5035007;28;20029;-69
2022/08/30 00:06:27;;;;;;;13.55;5.80;;;27.20;82.80;;;;;;5056564;28;20057;-69
2022/08/30 00:08:54;;;;;;;10.65;5.55;;;27.20;82.80;;;;;;5056377;28;20025;-69
2022/08/30 00:11:24;;;;;;;11.75;4.63;;;27.20;82.60;;;;;;5056525;28;20029;-69
2022/08/30 00:13:52;;;;;;;12.15;5.30;;;27.30;82.90;;;;;;5071593;28;20025;-70
2022/08/30 00:16:20;;;;;;;9.65;4.70;;;27.20;82.80;;;;;;5056348;28;20040;-69
2022/08/30 00:18:46;;;;;;;8.90;5.15;;;27.20;83.20;;;;;;5056348;28;20074;-69
2022/08/30 00:21:12;;;;;;;9.85;4.57;;;27.20;83.50;;;;;;5056047;28;20482;-69
2022/08/30 00:23:38;;;;;;;12.00;5.22;;;27.10;83.60;;;;;;5055833;28;20028;-69
2022/08/30 00:26:05;;;;;;;8.25;4.30;;;27.10;84.00;;;;;;5055998;28;20029;-69
2022/08/30 00:28:32;;;;;;;7.40;4.30;;;27.00;84.20;;;;;;5055879;28;20025;-69
2022/08/30 00:31:00;;;;;;;9.50;4.45;;;27.00;84.30;;;;;;5055906;28;20036;-69
2022/08/30 00:33:27;;;;;;;11.40;4.45;;;27.00;84.50;;;;;;5055701;28;20021;-70
2022/08/30 00:35:53;;;;;;;9.60;4.32;;;27.00;84.50;;;;;;5055752;28;20033;-69
2022/08/30 00:38:19;;;;;;;8.70;4.88;;;27.00;84.70;;;;;;5037704;28;20036;-69
2022/08/30 00:40:45;;;;;;;9.80;4.38;;;27.00;84.80;;;;;;5055748;28;20029;-69
2022/08/30 00:43:14;;;;;;;10.15;4.13;;;26.90;85.00;;;;;;5055759;28;20484;-69
2022/08/30 00:45:39;;;;;;;6.47;4.10;;;26.90;84.90;;;;;;5055638;28;20111;-68
2022/08/30 00:48:06;;;;;;;7.70;3.83;;;27.00;85.30;;;;;;5055729;28;20154;-69
2022/08/30 00:50:40;;;;;;;8.65;4.32;;;26.90;85.50;;;;;;5055541;28;20458;-68
2022/08/30 00:53:09;;;;;;;10.35;4.03;;;26.90;86.50;;;;;;5055946;28;20423;-68
2022/08/30 00:55:35;;;;;;;8.60;3.78;;;26.80;85.90;;;;;;5055446;28;20036;-69
2022/08/30 00:58:04;;;;;;;9.68;4.22;;;26.80;86.30;;;;;;5055468;28;20017;-69
2022/08/30 01:00:30;;;;;;;10.30;3.97;;;26.80;86.30;;;;;;5055307;28;20036;-69
2022/08/30 01:02:56;;;;;;;11.15;3.92;;;26.80;86.30;;;;;;5055229;28;20024;-69
2022/08/30 01:05:22;;;;;;;8.70;4.65;;;26.80;86.10;;;;;;5055014;28;20045;-68
2022/08/30 01:07:49;;;;;;;8.13;4.03;;;26.80;86.60;;;;;;5055347;28;20017;-68
2022/08/30 01:10:15;;;;;;;9.80;4.13;;;26.80;85.80;;;;;;5055218;28;20449;-69
2022/08/30 01:12:42;;;;;;;10.13;4.53;;;26.80;85.50;;;;;;5070592;28;20116;-69
2022/08/30 01:15:09;;;;;;;8.00;3.95;;;26.80;85.10;;;;;;5054480;28;20033;-69
2022/08/30 01:17:36;;;;;;;9.40;4.60;;;26.80;85.10;;;;;;5055303;28;20048;-69
2022/08/30 01:20:09;;;;;;;9.65;4.15;;;26.80;84.70;;;;;;5055496;28;20025;-68
2022/08/30 01:23:11;;;;;;;10.60;4.50;;;26.80;84.80;;;;;;5054932;28;20024;-69
2022/08/30 01:25:37;;;;;;;8.25;4.28;;;26.80;85.10;;;;;;5054958;28;20485;-70
2022/08/30 01:28:07;;;;;;;13.23;4.72;;;26.70;84.30;;;;;;5054779;28;20063;-69
2022/08/30 01:30:34;;;;;;;7.75;4.13;;;26.70;84.10;;;;;;5054760;28;20051;-69
2022/08/30 01:33:04;;;;;;;10.15;4.57;;;26.70;83.70;;;;;;5054722;28;20390;-68
2022/08/30 01:35:43;;;;;;;7.53;4.22;;;26.70;83.30;;;;;;5054404;28;20084;-69
2022/08/30 01:38:10;;;;;;;9.25;4.07;;;26.70;83.60;;;;;;5054582;28;20532;-69
2022/08/30 01:40:36;;;;;;;10.80;4.75;;;26.70;82.70;;;;;;5054612;28;20060;-68
2022/08/30 01:43:02;;;;;;;8.48;4.30;;;26.60;82.50;;;;;;5054728;28;20056;-69
2022/08/30 01:45:28;;;;;;;7.28;3.38;;;26.60;82.30;;;;;;5054537;28;20028;-69
2022/08/30 01:47:53;;;;;;;8.98;4.05;;;26.50;82.00;;;;;;5054488;28;20135;-68
2022/08/30 01:50:19;;;;;;;8.30;4.05;;;26.50;81.80;;;;;;5054389;28;20402;-69
2022/08/30 01:52:45;;;;;;;9.68;4.07;;;26.50;81.50;;;;;;5054366;28;20017;-69
2022/08/30 01:55:10;;;;;;;7.72;4.20;;;26.40;81.40;;;;;;5054073;28;20072;-68
2022/08/30 01:57:36;;;;;;;8.75;4.35;;;26.30;81.20;;;;;;5054308;28;20481;-69
2022/08/30 02:00:06;;;;;;;11.15;4.60;;;26.30;81.20;;;;;;5054327;28;20032;-68
2022/08/30 02:02:32;;;;;;;7.60;3.70;;;26.30;81.00;;;;;;5054394;28;20029;-68
2022/08/30 02:04:58;;;;;;;8.60;3.83;;;26.30;80.90;;;;;;5053964;28;20048;-69
2022/08/30 02:07:24;;;;;;;8.23;3.88;;;26.40;80.90;;;;;;5054205;28;20025;-69
2022/08/30 02:09:51;;;;;;;9.98;4.22;;;26.40;80.30;;;;;;5054077;28;20445;-68
2022/08/30 02:12:17;;;;;;;12.15;4.10;;;26.40;80.00;;;;;;5053909;28;20060;-68
2022/08/30 02:14:43;;;;;;;6.70;3.55;;;26.40;79.80;;;;;;5053774;28;20163;-69
2022/08/30 02:17:13;;;;;;;8.18;3.85;;;26.30;80.30;;;;;;5053949;28;20075;-69
2022/08/30 02:19:40;;;;;;;8.38;3.70;;;26.30;79.60;;;;;;5053907;28;20029;-69
2022/08/30 02:22:06;;;;;;;6.97;3.70;;;26.30;79.40;;;;;;5054073;28;20100;-69
2022/08/30 02:24:31;;;;;;;7.63;3.70;;;26.20;78.90;;;;;;5053732;28;20108;-68
2022/08/30 02:26:57;;;;;;;8.85;3.80;;;26.10;78.90;;;;;;5053286;28;20053;-68
2022/08/30 02:29:24;;;;;;;9.75;6.10;;;26.10;78.60;;;;;;5053771;28;20056;-69
2022/08/30 02:31:50;;;;;;;7.82;4.30;;;26.10;79.10;;;;;;5053708;28;20036;-69
2022/08/30 02:34:17;;;;;;;6.88;3.50;;;26.10;78.40;;;;;;5053581;28;20025;-69
2022/08/30 02:36:43;;;;;;;7.40;3.97;;;26.00;78.40;;;;;;5053518;28;20021;-69
2022/08/30 02:39:11;;;;;;;8.05;3.42;;;26.00;78.10;;;;;;5053382;28;20099;-69
2022/08/30 02:41:38;;;;;;;6.53;3.42;;;25.90;78.30;;;;;;5053596;28;20050;-68
2022/08/30 02:44:04;;;;;;;7.88;3.63;;;25.90;78.30;;;;;;5053409;28;20033;-68
2022/08/30 02:46:30;;;;;;;6.25;3.33;;;25.90;77.80;;;;;;5053442;28;20130;-69
2022/08/30 02:48:56;;;;;;;5.72;3.05;;;25.90;77.60;;;;;;5053209;28;20478;-67
2022/08/30 02:51:22;;;;;;;6.47;3.03;;;25.90;77.40;;;;;;5053222;28;20461;-69
2022/08/30 02:53:48;;;;;;;8.93;3.30;;;25.90;77.40;;;;;;5053126;28;20486;-68
2022/08/30 02:56:15;;;;;;;7.55;3.03;;;25.80;77.70;;;;;;5053288;28;20083;-70
2022/08/30 02:58:41;;;;;;;7.05;3.42;;;25.80;77.60;;;;;;5053212;28;20052;-68
2022/08/30 03:01:08;;;;;;;8.60;3.25;;;25.80;77.50;;;;;;5053080;28;20029;-68
2022/08/30 03:03:34;;;;;;;6.05;3.17;;;25.80;77.30;;;;;;5052998;28;20017;-69
2022/08/30 03:06:02;;;;;;;8.48;3.15;;;25.70;77.30;;;;;;5052851;28;20063;-69
2022/08/30 03:08:29;;;;;;;8.45;3.22;;;25.70;77.70;;;;;;5053130;28;20029;-68
2022/08/30 03:10:56;;;;;;;6.65;3.15;;;25.70;77.70;;;;;;5053003;28;20036;-68
2022/08/30 03:13:22;;;;;;;6.45;3.08;;;25.60;77.70;;;;;;5052869;28;20067;-69
2022/08/30 03:15:49;;;;;;;5.20;3.10;;;25.60;77.90;;;;;;5052960;28;20470;-69
2022/08/30 03:18:16;;;;;;;5.88;3.22;;;25.70;78.40;;;;;;5052886;28;20539;-68
2022/08/30 03:20:41;;;;;;;6.63;3.25;;;25.70;77.50;;;;;;5052714;28;20082;-69
2022/08/30 03:23:07;;;;;;;6.65;3.13;;;25.70;77.60;;;;;;5052774;28;20029;-69
2022/08/30 03:25:33;;;;;;;6.90;3.13;;;25.60;77.50;;;;;;5052670;28;20032;-69
2022/08/30 03:27:59;;;;;;;6.65;3.22;;;25.60;77.60;;;;;;5052622;28;20436;-68
2022/08/30 03:30:25;;;;;;;4.90;2.72;;;25.50;77.80;;;;;;5052678;28;20035;-69
2022/08/30 03:32:51;;;;;;;8.40;3.35;;;25.50;78.00;;;;;;5052662;28;20104;-69
2022/08/30 03:35:17;;;;;;;6.93;3.25;;;25.50;78.00;;;;;;5067969;28;20037;-69
2022/08/30 03:37:43;;;;;;;6.47;3.05;;;25.50;78.00;;;;;;5052723;28;20044;-68
2022/08/30 03:40:10;;;;;;;9.38;3.42;;;25.50;78.20;;;;;;5052855;28;20021;-69
2022/08/30 03:42:36;;;;;;;6.22;2.92;;;25.50;78.20;;;;;;5052812;28;20405;-70
2022/08/30 03:45:03;;;;;;;7.78;2.78;;;25.50;78.00;;;;;;5052476;28;20112;-68
2022/08/30 03:47:29;;;;;;;7.72;3.30;;;25.50;78.00;;;;;;5052375;28;20037;-69
2022/08/30 03:49:55;;;;;;;6.13;2.85;;;25.50;77.90;;;;;;5052323;28;20064;-68
2022/08/30 03:52:21;;;;;;;12.30;3.55;;;25.50;78.20;;;;;;5052334;28;20025;-69
2022/08/30 03:54:47;;;;;;;9.70;2.97;;;25.50;78.20;;;;;;5052119;28;20060;-68
2022/08/30 03:57:12;;;;;;;17.95;3.78;;;25.50;78.00;;;;;;5052326;28;20025;-68
2022/08/30 03:59:38;;;;;;;7.28;3.30;;;25.60;77.90;;;;;;5052356;28;20032;-68
2022/08/30 04:02:04;;;;;;;7.15;3.67;;;25.60;77.90;;;;;;5052351;28;20032;-68
2022/08/30 04:04:30;;;;;;;8.73;5.25;;;25.60;77.80;;;;;;5051853;28;20028;-68
2022/08/30 04:06:56;;;;;;;7.72;3.53;;;25.60;78.10;;;;;;5052399;28;20040;-69
2022/08/30 04:09:22;;;;;;;8.32;3.72;;;25.50;78.10;;;;;;5052069;28;20029;-68
2022/08/30 04:11:48;;;;;;;8.50;3.15;;;25.50;78.40;;;;;;5052324;28;20021;-69
2022/08/30 04:14:13;;;;;;;7.00;3.40;;;25.50;78.10;;;;;;5052022;28;20040;-69
2022/08/30 04:16:39;;;;;;;6.15;2.85;;;25.50;78.30;;;;;;5052149;28;20021;-68
2022/08/30 04:19:05;;;;;;;6.53;3.17;;;25.50;78.30;;;;;;5052185;28;20484;-70
2022/08/30 04:21:31;;;;;;;8.63;3.58;;;25.60;78.50;;;;;;5052287;28;20116;-68
2022/08/30 04:23:57;;;;;;;8.52;3.28;;;25.60;78.30;;;;;;5052148;28;20025;-69
2022/08/30 04:26:22;;;;;;;9.98;3.88;;;25.60;78.60;;;;;;5052070;28;20025;-70
2022/08/30 04:28:48;;;;;;;8.23;3.72;;;25.60;78.40;;;;;;5051863;28;20482;-68
2022/08/30 04:31:16;;;;;;;9.35;3.63;;;25.60;78.40;;;;;;5052112;28;20096;-69
2022/08/30 04:33:42;;;;;;;8.35;3.45;;;25.60;78.40;;;;;;5051905;28;20380;-69
2022/08/30 04:36:12;;;;;;;5.95;3.25;;;25.60;78.60;;;;;;5051986;28;20114;-68
2022/08/30 04:38:39;;;;;;;6.10;3.10;;;25.50;78.70;;;;;;5051976;28;20030;-69
2022/08/30 04:41:11;;;;;;;7.00;3.00;;;25.50;78.40;;;;;;5051863;28;20060;-70
2022/08/30 04:43:38;;;;;;;6.85;3.35;;;25.50;78.50;;;;;;5051805;28;20053;-69
2022/08/30 04:46:06;;;;;;;8.15;3.78;;;25.50;78.50;;;;;;5051868;28;20033;-68
2022/08/30 04:48:32;;;;;;;6.93;3.17;;;25.50;78.70;;;;;;5051987;28;20017;-69
2022/08/30 04:50:58;;;;;;;9.00;4.05;;;25.50;78.60;;;;;;5054151;28;20052;-68
2022/08/30 04:53:24;;;;;;;10.40;4.28;;;25.50;78.80;;;;;;5071024;28;20478;-69
2022/08/30 04:55:50;;;;;;;9.82;3.50;;;25.40;78.40;;;;;;5055622;28;20036;-69
2022/08/30 04:58:16;;;;;;;8.68;4.03;;;25.40;78.50;;;;;;5055645;28;20025;-69
2022/08/30 05:00:45;;;;;;;11.73;3.50;;;25.40;78.90;;;;;;5055564;28;20028;-71
2022/08/30 05:03:11;;;;;;;8.63;3.80;;;25.40;79.20;;;;;;5055349;28;20021;-69
2022/08/30 05:05:40;;;;;;;9.98;4.10;;;25.40;79.30;;;;;;5055130;28;20045;-69
2022/08/30 05:08:12;;;;;;;6.85;3.67;;;25.30;79.80;;;;;;5055262;28;20547;-69
2022/08/30 05:10:40;;;;;;;8.75;3.90;;;25.30;80.00;;;;;;5055288;28;20029;-68
2022/08/30 05:13:06;;;;;;;8.63;3.83;;;25.30;79.80;;;;;;5070512;28;20055;-69
2022/08/30 05:15:32;;;;;;;7.03;3.50;;;25.30;80.00;;;;;;5055263;28;20032;-68
2022/08/30 05:17:58;;;;;;;7.70;4.07;;;25.40;80.20;;;;;;5055236;28;20025;-69
2022/08/30 05:20:24;;;;;;;10.43;4.40;;;25.30;80.30;;;;;;5055077;28;20032;-69
2022/08/30 05:22:49;;;;;;;11.93;4.32;;;25.40;80.30;;;;;;5055022;28;20017;-69
2022/08/30 05:25:23;;;;;;;7.22;3.72;;;25.40;80.20;;;;;;5055005;28;20051;-68
2022/08/30 05:27:51;;;;;;;8.60;3.85;;;25.40;80.60;;;;;;5054797;28;20013;-68
2022/08/30 05:30:17;;;;;;;8.95;4.63;;;25.40;79.70;;;;;;5055112;28;20083;-68
2022/08/30 05:32:43;;;;;;;8.98;4.45;;;25.40;79.90;;;;;;5055024;28;20052;-69
2022/08/30 05:35:11;;;;;;;8.15;4.18;;;25.40;80.10;;;;;;5054889;28;20040;-68
2022/08/30 05:37:37;;;;;;;10.90;3.70;;;25.40;79.90;;;;;;5054756;28;20021;-71
2022/08/30 05:40:04;;;;;;;8.20;3.72;;;25.40;79.80;;;;;;5036864;28;20402;-69
2022/08/30 05:42:30;;;;;;;8.70;3.33;;;25.40;79.80;;;;;;5054193;28;20025;-68
2022/08/30 05:44:56;;;;;;;10.15;3.63;;;25.50;79.60;;;;;;5054655;28;20054;-67
2022/08/30 05:47:22;;;;;;;10.77;3.75;;;25.50;79.50;;;;;;5054444;28;20443;-66
2022/08/30 05:49:48;;;;;;;8.10;3.50;;;25.70;79.30;;;;;;5054532;28;20037;-69
2022/08/30 05:52:17;;;;;;;7.93;3.78;;;25.80;78.70;;;;;;5054808;28;20021;-69
2022/08/30 05:54:44;;;;;;;7.28;3.45;;;26.00;78.80;;;;;;5054665;28;20120;-67
2022/08/30 05:57:10;;;;;;;7.88;3.35;;;26.20;78.10;;;;;;5053359;28;20040;-69
2022/08/30 05:59:36;;;;;;;7.85;3.30;;;26.50;76.80;;;;;;5054656;28;20071;-68
2022/08/30 06:02:02;;;;;;;13.13;3.78;;;26.80;75.90;;;;;;5053971;28;20398;-68
2022/08/30 06:04:28;;;;;;;10.85;3.83;;;27.10;74.90;;;;;;5054184;28;20029;-69
2022/08/30 06:06:54;;;;;;;9.48;4.10;;;27.30;74.20;;;;;;5053949;28;20031;-68
2022/08/30 06:09:19;;;;;;;9.20;3.67;;;27.60;73.20;;;;;;5044057;28;20489;-68
2022/08/30 06:11:46;;;;;;;9.85;4.05;;;27.80;72.40;;;;;;5054421;28;20036;-69
2022/08/30 06:14:12;;;;;;;9.65;3.75;;;27.90;72.00;;;;;;5053927;28;20084;-69
2022/08/30 06:16:39;;;;;;;8.43;3.60;;;28.10;71.10;;;;;;5054037;28;20028;-68
2022/08/30 06:19:07;;;;;;;8.18;3.05;;;28.20;71.00;;;;;;5053952;28;20036;-68
2022/08/30 06:21:39;;;;;;;9.13;3.20;;;28.40;70.10;;;;;;5069428;28;20367;-69
2022/08/30 06:24:06;;;;;;;8.00;3.53;;;28.60;69.30;;;;;;5054055;28;20500;-71
2022/08/30 06:26:40;;;;;;;17.65;3.72;;;28.70;68.60;;;;;;5054204;28;20024;-70
2022/08/30 06:29:07;;;;;;;6.35;3.20;;;28.90;68.50;;;;;;5039535;28;20569;-71
2022/08/30 06:31:32;;;;;;;12.90;4.05;;;29.20;67.60;;;;;;5053835;28;20111;-69
2022/08/30 06:33:58;;;;;;;16.98;4.00;;;29.40;66.60;;;;;;5053541;28;20100;-68
2022/08/30 06:36:25;;;;;;;28.55;5.07;;;29.50;66.00;;;;;;5053192;28;20104;-68
2022/08/30 06:38:53;;;;;;;12.52;4.15;;;29.70;65.70;;;;;;5053254;28;20018;-69
2022/08/30 06:41:22;;;;;;;12.18;3.60;;;29.80;65.20;;;;;;5053483;28;20370;-71
2022/08/30 06:43:48;;;;;;;6.47;2.85;;;30.00;64.50;;;;;;5053103;28;20017;-69
2022/08/30 06:46:18;;;;;;;11.23;3.85;;;30.00;64.00;;;;;;5053891;28;20381;-69
2022/08/30 06:48:44;;;;;;;13.30;3.20;;;30.10;63.90;;;;;;5053797;28;20128;-69
2022/08/30 06:51:09;;;;;;;8.38;3.00;;;30.10;63.60;;;;;;5053632;28;20029;-70
2022/08/30 06:53:36;;;;;;;7.95;3.63;;;30.20;63.30;;;;;;5051956;28;20041;-69
2022/08/30 06:56:08;;;;;;;10.27;3.40;;;30.20;62.40;;;;;;5053367;28;20506;-68
2022/08/30 06:58:36;;;;;;;6.60;3.00;;;30.20;63.40;;;;;;5053682;28;20028;-68
2022/08/30 07:01:03;;;;;;;11.43;3.60;;;30.10;61.80;;;;;;5053597;28;20114;-71
2022/08/30 07:03:29;;;;;;;12.32;3.33;;;30.20;61.90;;;;;;5053260;28;20021;-70
2022/08/30 07:05:56;;;;;;;19.40;4.35;;;30.30;62.60;;;;;;5053265;28;20059;-70
2022/08/30 07:08:23;;;;;;;9.70;3.35;;;30.50;62.00;;;;;;5053511;28;20024;-70
2022/08/30 07:10:53;;;;;;;15.60;4.70;;;30.50;62.20;;;;;;5052897;28;20477;-69
2022/08/30 07:13:20;;;;;;;11.98;3.75;;;30.50;60.90;;;;;;5053165;28;20031;-69
2022/08/30 07:15:46;;;;;;;14.57;3.30;;;30.70;62.10;;;;;;5053123;28;20154;-69
2022/08/30 07:21:04;;;;;;;20.67;4.05;;;30.90;61.20;;;;;;5053600;28;20090;-68
2022/08/30 07:23:30;;;;;;;8.20;2.95;;;31.00;61.10;;;;;;5053370;28;20052;-69
2022/08/30 07:25:56;;;;;;;16.77;3.60;;;31.00;60.50;;;;;;5053303;28;20053;-69
2022/08/30 07:28:21;;;;;;;13.90;3.95;;;31.00;60.50;;;;;;5053004;28;20059;-69
2022/08/30 07:30:47;;;;;;;9.43;2.95;;;31.00;60.60;;;;;;5051753;28;20021;-69
2022/08/30 07:33:13;;;;;;;10.50;3.70;;;30.90;60.30;;;;;;5052998;28;20057;-71
2022/08/30 07:35:39;;;;;;;7.20;3.20;;;30.90;60.10;;;;;;5052754;28;20041;-69
2022/08/30 07:38:05;;;;;;;12.25;2.97;;;30.90;59.70;;;;;;5052581;28;20040;-69
2022/08/30 07:40:30;;;;;;;7.97;3.25;;;30.70;60.00;;;;;;5052866;28;20028;-71
2022/08/30 07:42:57;;;;;;;9.30;3.13;;;30.70;60.30;;;;;;5052614;28;20180;-70
2022/08/30 07:45:23;;;;;;;10.18;2.72;;;30.70;60.00;;;;;;5052541;28;20175;-69
2022/08/30 07:47:49;;;;;;;8.50;2.88;;;30.60;60.10;;;;;;5053128;28;20122;-71
2022/08/30 07:50:14;;;;;;;10.90;2.60;;;30.50;60.40;;;;;;5052862;28;20036;-69
2022/08/30 07:52:41;;;;;;;8.25;2.90;;;30.50;60.30;;;;;;5052582;28;20055;-70
2022/08/30 07:55:07;;;;;;;9.43;3.25;;;30.40;60.60;;;;;;5052541;28;20043;-70
2022/08/30 07:57:33;;;;;;;10.32;2.63;;;30.40;60.70;;;;;;5052692;28;20470;-69
2022/08/30 07:59:59;;;;;;;8.50;3.22;;;30.30;60.50;;;;;;5052306;28;20032;-70
2022/08/30 08:02:25;;;;;;;9.20;3.20;;;30.20;60.90;;;;;;5052390;28;20144;-69
2022/08/30 08:04:51;;;;;;;18.08;3.40;;;30.10;61.20;;;;;;5052600;28;20049;-70
2022/08/30 08:07:17;;;;;;;14.65;3.20;;;30.20;61.10;;;;;;5052514;28;20097;-69
2022/08/30 08:09:43;;;;;;;7.97;3.00;;;30.20;61.00;;;;;;5052488;28;20036;-71
2022/08/30 08:12:09;;;;;;;8.07;3.05;;;30.20;61.10;;;;;;5052423;28;20027;-69
2022/08/30 08:14:35;;;;;;;10.57;2.95;;;30.30;61.30;;;;;;5052255;28;20045;-70
2022/08/30 08:17:02;;;;;;;8.55;3.20;;;30.20;61.40;;;;;;5052539;28;20138;-70
2022/08/30 08:19:28;;;;;;;8.30;3.30;;;30.20;61.30;;;;;;5052437;28;20051;-70
2022/08/30 08:21:55;;;;;;;10.35;3.00;;;30.30;61.10;;;;;;5052634;28;20359;-70
2022/08/30 08:24:22;;;;;;;8.15;3.15;;;30.20;60.00;;;;;;5054727;28;20375;-70
2022/08/30 08:26:48;;;;;;;8.35;3.42;;;30.10;60.10;;;;;;5055766;28;20032;-70
2022/08/30 08:29:14;;;;;;;11.18;3.40;;;30.10;61.40;;;;;;5056581;28;20021;-70
2022/08/30 08:31:40;;;;;;;9.07;3.25;;;30.00;60.90;;;;;;5056312;28;20037;-70
2022/08/30 08:34:07;;;;;;;9.65;3.47;;;30.00;61.60;;;;;;5056031;28;20491;-70
2022/08/30 08:36:34;;;;;;;7.07;2.80;;;30.00;61.60;;;;;;5056326;28;20021;-70
2022/08/30 08:39:01;;;;;;;5.68;2.85;;;29.90;61.30;;;;;;5056192;28;20040;-70
2022/08/30 08:41:45;;;;;;;12.77;2.80;;;29.90;61.60;;;;;;5055972;28;20096;-70
2022/08/30 08:44:44;;;;;;;12.18;3.30;;;29.80;61.40;;;;;;5055997;28;20041;-71
2022/08/30 08:47:36;;;;;;;15.18;3.33;;;29.90;61.40;;;;;;5023713;28;20033;-70
2022/08/30 08:50:16;;;;;;;8.10;2.95;;;29.80;60.60;;;;;;5056370;28;20441;-70
2022/08/30 08:55:47;;;;;;;9.52;3.17;;;29.80;61.10;;;;;;5055974;28;20040;-70
2022/08/30 08:58:27;;;;;;;10.90;2.85;;;29.80;61.70;;;;;;5055992;28;20489;-69
2022/08/30 09:00:55;;;;;;;9.70;3.10;;;29.80;61.10;;;;;;5055681;28;20096;-70
2022/08/30 09:03:23;;;;;;;8.98;2.80;;;29.80;61.70;;;;;;5055469;28;20032;-69
2022/08/30 09:05:50;;;;;;;9.07;2.50;;;29.90;61.70;;;;;;5055432;28;20401;-70
2022/08/30 09:08:18;;;;;;;9.38;3.00;;;29.90;61.30;;;;;;5055694;28;20071;-70
2022/08/30 09:11:05;;;;;;;10.77;3.30;;;29.90;61.00;;;;;;5055713;28;20048;-69
2022/08/30 09:13:32;;;;;;;7.40;2.75;;;29.90;61.10;;;;;;5055235;28;20021;-70
2022/08/30 09:15:58;;;;;;;11.05;2.50;;;29.90;61.30;;;;;;5053981;28;20064;-70
2022/08/30 09:18:45;;;;;;;10.35;3.30;;;29.90;60.60;;;;;;5055442;28;20021;-69
2022/08/30 09:21:12;;;;;;;12.98;3.42;;;30.00;60.00;;;;;;5055248;28;20025;-69
2022/08/30 09:23:47;;;;;;;7.93;3.35;;;30.00;61.10;;;;;;5055025;28;20061;-70
2022/08/30 09:26:13;;;;;;;10.82;3.20;;;30.00;61.00;;;;;;5055262;28;20129;-70
2022/08/30 09:28:50;;;;;;;8.85;2.85;;;30.10;60.80;;;;;;5055314;28;20383;-70
2022/08/30 09:31:25;;;;;;;8.07;2.97;;;30.20;60.90;;;;;;5055341;28;20067;-71
2022/08/30 09:34:00;;;;;;;8.63;2.88;;;30.20;60.90;;;;;;5053708;28;20033;-69
2022/08/30 09:36:28;;;;;;;10.43;2.55;;;30.20;60.60;;;;;;5053236;28;20095;-68
2022/08/30 09:39:03;;;;;;;8.20;2.78;;;30.20;60.30;;;;;;5053377;28;20134;-70
2022/08/30 09:41:37;;;;;;;8.90;2.85;;;30.20;60.00;;;;;;5055281;28;20025;-71
2022/08/30 09:44:26;;;;;;;8.35;2.65;;;30.20;58.90;;;;;;5054876;28;20017;-69
2022/08/30 09:46:56;;;;;;;6.43;2.88;;;30.30;59.60;;;;;;5055401;28;20033;-70
2022/08/30 09:49:43;;;;;;;6.68;2.75;;;30.30;59.30;;;;;;5054353;28;20441;-70
2022/08/30 09:52:16;;;;;;;8.77;3.10;;;30.30;58.70;;;;;;5055083;28;20426;-70
2022/08/30 09:54:42;;;;;;;;;;;30.30;58.50;;;;;;5055092;28;20036;-69
2022/08/30 09:57:19;;;;;;;6.82;2.70;;;30.40;58.70;;;;;;5055328;28;19905;-70
2022/08/30 09:59:53;;;;;;;6.28;2.50;;;30.50;58.20;;;;;;5055080;28;20021;-70
2022/08/30 10:02:40;;;;;;;8.90;2.45;;;30.50;57.10;;;;;;5053614;28;20032;-70
2022/08/30 10:05:08;;;;;;;7.82;2.90;;;30.60;55.70;;;;;;5054576;28;20045;-70
2022/08/30 10:07:41;;;;;;;8.07;3.40;;;30.60;56.60;;;;;;5054889;28;20065;-69
2022/08/30 10:10:13;;;;;;;7.13;2.75;;;30.70;56.70;;;;;;5055027;28;20055;-70
2022/08/30 10:13:00;;;;;;;10.85;2.70;;;30.80;56.20;;;;;;5054540;28;20536;-70
2022/08/30 10:15:29;;;;;;;5.65;2.40;;;30.80;54.60;;;;;;5054309;28;20048;-70
2022/08/30 10:18:10;;;;;;;9.80;3.40;;;30.80;55.80;;;;;;5054715;28;20029;-70
2022/08/30 10:20:40;;;;;;;7.30;3.13;;;30.90;56.10;;;;;;5054482;28;20055;-70
2022/08/30 10:23:24;;;;;;;8.40;2.80;;;31.00;55.80;;;;;;5054558;28;20032;-70
2022/08/30 10:25:55;;;;;;;6.38;3.22;;;31.10;54.50;;;;;;5054584;28;20063;-71
2022/08/30 10:28:33;;;;;;;7.75;2.72;;;31.20;54.50;;;;;;5054301;28;20021;-71
2022/08/30 10:31:05;;;;;;;8.35;2.75;;;31.30;56.00;;;;;;5054375;28;20021;-70
2022/08/30 10:33:41;;;;;;;4.45;2.50;;;31.30;55.60;;;;;;5054652;28;20096;-71
2022/08/30 10:36:12;;;;;;;14.88;2.92;;;31.40;54.90;;;;;;5054049;28;20470;-70
2022/08/30 10:38:47;;;;;;;6.30;2.55;;;31.50;54.30;;;;;;5054273;28;20025;-70
2022/08/30 10:41:37;;;;;;;11.80;2.67;;;31.50;53.60;;;;;;5055539;28;20036;-70
2022/08/30 10:44:17;;;;;;;6.47;2.42;;;31.60;51.80;;;;;;5059948;28;20094;-70
2022/08/30 10:47:24;;;;;;;4.18;2.20;;;31.70;52.30;;;;;;5054101;28;20036;-73
2022/08/30 10:49:56;;;;;;;11.40;2.95;;;31.60;50.30;;;;;;5053659;28;20377;-70
2022/08/30 10:52:30;;;;;;;9.38;2.67;;;31.70;52.20;;;;;;5053926;28;20029;-70
2022/08/30 10:55:00;;;;;;;6.97;2.40;;;31.80;51.70;;;;;;5051986;28;20182;-70
2022/08/30 10:57:26;;;;;;;5.78;2.80;;;31.80;50.40;;;;;;5053561;28;20047;-70
2022/08/30 11:00:06;;;;;;;5.95;2.35;;;31.90;51.40;;;;;;5052385;28;20025;-70
2022/08/30 11:02:32;;;;;;;7.18;2.50;;;31.90;50.00;;;;;;5052960;28;20045;-69
2022/08/30 11:05:16;;;;;;;6.18;2.33;;;32.00;51.50;;;;;;5053449;28;20049;-69
2022/08/30 11:07:48;;;;;;;10.88;2.83;;;32.00;51.50;;;;;;5053687;28;20021;-69
2022/08/30 11:10:17;;;;;;;5.75;2.65;;;32.00;50.00;;;;;;5053724;28;20060;-70
2022/08/30 11:13:17;;;;;;;12.88;2.90;;;32.00;49.80;;;;;;5053325;28;20033;-70
2022/08/30 11:16:07;;;;;;;8.00;3.10;;;32.10;49.40;;;;;;5053304;28;20503;-68
2022/08/30 11:18:52;;;;;;;5.05;2.42;;;32.10;49.60;;;;;;5041940;28;20521;-72
2022/08/30 11:21:38;;;;;;;10.23;2.85;;;32.20;50.70;;;;;;5053311;28;20025;-70
2022/08/30 11:24:16;;;;;;;6.95;2.40;;;32.20;49.10;;;;;;5051961;28;20063;-70
2022/08/30 11:26:44;;;;;;;5.40;2.83;;;32.30;49.20;;;;;;5053732;28;20111;-70
2022/08/30 11:29:31;;;;;;;7.72;2.53;;;32.50;49.60;;;;;;5051988;28;20048;-70
2022/08/30 11:32:17;;;;;;;10.50;2.58;;;32.50;49.30;;;;;;5052995;28;20017;-71
2022/08/30 11:34:46;;;;;;;6.00;2.60;;;32.50;49.20;;;;;;5051436;28;20058;-70
2022/08/30 11:37:35;;;;;;;7.68;2.67;;;32.50;49.40;;;;;;5053314;28;20101;-70
2022/08/30 11:40:09;;;;;;;6.22;2.40;;;32.60;48.30;;;;;;5053272;28;20036;-70
2022/08/30 11:42:55;;;;;;;8.18;2.75;;;32.60;48.30;;;;;;5052903;28;20045;-69
2022/08/30 11:45:23;;;;;;;9.57;2.60;;;32.70;48.80;;;;;;5053031;28;20060;-70
2022/08/30 11:47:51;;;;;;;5.90;2.60;;;32.80;49.00;;;;;;5053146;28;20032;-71
2022/08/30 11:50:25;;;;;;;5.95;2.40;;;32.90;49.30;;;;;;5053064;28;20033;-70
2022/08/30 11:53:04;;;;;;;5.97;2.40;;;32.80;47.80;;;;;;5053237;28;20061;-70
2022/08/30 11:55:41;;;;;;;6.13;2.72;;;32.70;48.90;;;;;;5053258;28;20038;-70
2022/08/30 11:58:30;;;;;;;8.45;2.92;;;32.70;48.90;;;;;;5053360;28;20060;-71
2022/08/30 12:01:14;;;;;;;6.88;2.83;;;32.70;50.40;;;;;;5052646;28;20108;-71
2022/08/30 12:03:41;;;;;;;8.40;3.42;;;32.60;52.10;;;;;;5052619;28;20323;-70
2022/08/30 12:06:09;;;;;;;8.15;2.78;;;32.70;52.50;;;;;;5052643;28;20045;-71
2022/08/30 12:08:44;;;;;;;7.15;2.90;;;32.70;53.10;;;;;;5053241;28;20025;-69
2022/08/30 12:11:10;;;;;;;6.90;3.05;;;32.70;52.10;;;;;;5052883;28;20033;-70
2022/08/30 12:13:36;;;;;;;9.40;2.97;;;32.70;53.30;;;;;;5052625;28;20047;-69
2022/08/30 12:16:10;;;;;;;11.88;3.08;;;32.80;52.90;;;;;;5052848;28;20061;-70
2022/08/30 12:18:50;;;;;;;8.50;3.05;;;32.80;51.40;;;;;;5052761;28;20029;-70
2022/08/30 12:21:18;;;;;;;7.88;2.80;;;32.90;51.40;;;;;;5052682;28;20116;-69
2022/08/30 12:24:09;;;;;;;6.82;2.70;;;33.00;52.90;;;;;;5052603;28;20465;-70
2022/08/30 12:26:40;;;;;;;8.18;2.90;;;33.00;51.70;;;;;;5052493;28;20021;-70
2022/08/30 12:29:16;;;;;;;7.13;2.83;;;33.00;53.00;;;;;;5051498;28;20113;-70
2022/08/30 12:31:53;;;;;;;9.63;3.00;;;33.10;52.80;;;;;;5052685;28;20030;-69
2022/08/30 12:34:39;;;;;;;7.18;2.75;;;33.20;52.80;;;;;;5052633;28;20533;-70
2022/08/30 12:37:09;;;;;;;6.30;2.30;;;33.20;51.10;;;;;;5052658;28;20044;-70
2022/08/30 12:39:41;;;;;;;6.03;2.75;;;33.20;52.10;;;;;;5052882;28;20083;-71
2022/08/30 12:42:22;;;;;;;5.30;2.35;;;33.20;52.20;;;;;;5052441;28;20029;-70
2022/08/30 12:44:51;;;;;;;8.15;2.63;;;33.20;51.80;;;;;;5052178;28;20028;-69
2022/08/30 12:47:26;;;;;;;5.60;2.67;;;33.30;51.60;;;;;;5052326;28;20055;-71
2022/08/30 12:49:53;;;;;;;7.82;2.40;;;33.30;50.70;;;;;;5052440;28;20025;-71
2022/08/30 12:52:25;;;;;;;4.47;2.20;;;33.40;51.70;;;;;;5052252;28;20025;-70
2022/08/30 12:55:12;;;;;;;7.75;2.50;;;33.40;51.00;;;;;;5052222;28;20033;-70
2022/08/30 12:57:53;;;;;;;6.47;2.50;;;33.50;50.10;;;;;;5052319;28;20025;-69
2022/08/30 13:00:26;;;;;;;6.47;2.45;;;33.50;49.80;;;;;;5052432;28;20470;-70
2022/08/30 13:02:53;;;;;;;9.10;3.75;;;33.50;50.80;;;;;;5052359;28;20087;-69
2022/08/30 13:05:39;;;;;;;4.75;2.40;;;33.60;50.90;;;;;;5051964;28;20052;-69